AirNav   Air Wisconsin Airman Trainee
 
 1001 users online  

6Y5 Two Hearted Airstrip
Newberry, Michigan, USA


FAA INFORMATION EFFECTIVE 28 FEBRUARY 2019

Location

FAA Identifier: 6Y5
Lat/Long: 46-41-36.0450N / 085-25-19.5450W
46-41.600750N / 085-25.325750W
46.6933458 / -85.4220958
(estimated)
Elevation: 680 ft. / 207 m (estimated)
From city: 20 miles N of NEWBERRY, MI
Time zone: UTC -5 (UTC -4 during Daylight Saving Time)
Zip code: 49768

Airport Operations

Airport use: Open to the public
Activation date: 03/2018
Control tower: no
ARTCC: MINNEAPOLIS CENTER
FSS: GREEN BAY FLIGHT SERVICE STATION
Attendance: 
Segmented circle: no

Airport Communications

CTAF: 122.9

Airport Services

Runway Information

Runway 7/25

Dimensions: 2400 x 75 ft. / 732 x 23 m
Surface: turf
RUNWAY 7  RUNWAY 25
Latitude: 46-41.498500N46-41.703000N
Longitude: 085-25.571167W085-25.080333W
Elevation: 678.0 ft.672.0 ft.
Traffic pattern: leftleft

Airport Ownership and Management from official FAA records

Ownership: Publicly-owned
Owner: STATE OF MICHIGAN
DNR P.O. BOX 452
LANSING, MI 48909
Phone 517-284-6367
Manager: JAY HOLLNAGEL
5523 COUNTY RD. 399
NEWBERRY, MI 49686
Phone 906-291-0570

Instrument Procedures

There are no published instrument procedures at 6Y5.

Some nearby airports with instrument procedures:

KERY - Luce County Airport (23 nm S)
KANJ - Sault Ste Marie Municipal Airport/Sanderson Field (45 nm E)
KCIU - Chippewa County International Airport (47 nm SE)
KISQ - Schoolcraft County Airport (53 nm SW)
83D - Mackinac County Airport (56 nm SE)
 
Loc | Ops | Rwys | IFR | FBO | Links
Com | Nav | Svcs | Stats | Notes
Aerial photo
No photo
 
Airport distance calculator
Flying to Two Hearted Airstrip? Find the distance to fly.

From to 6Y5

Sunrise and sunset
Times for 24-Mar-2019
 Local
(UTC-4)
 Zulu
(UTC)
Morning civil twilight07:0811:08
Sunrise07:3811:38
Sunset19:5823:58
Evening civil twilight20:2900:29

Current date and time
Zulu (UTC)  24-Mar-2019 16:50:18
Local (UTC-4)  24-Mar-2019 12:50:18
 
METAR
KERY 
24nm S 
241635Z AUTO 36009KT 10SM OVC050 00/M07 A3014 RMK AO2 T00041075
CYAM 
40nm E 
241600Z 07012KT 25SM FEW024 FEW038 BKN058 BKN080 01/M06 A3012 RMK CU1SC1SC4AC1 SLP211
CWCI 
41nm NW 
241500Z AUTO M05/M10 RMK AO1 SLP239 T10541095 51030
KANJ 
46nm E 
241555Z AUTO 06007KT 030V090 10SM OVC060 02/M07 A3012 RMK AO2 SLP206 T00171067
TAF
CYAM 
40nm E 
241339Z 2414/2502 03010KT P6SM -SN FEW010 OVC050 TEMPO 2414/2415 2SM -SN VV010 FM241500 03012KT P6SM BKN030 BECMG 2415/2417 33010KT FM241700 33010KT P6SM SKC RMK NXT FCST BY 242000Z
NOTAMs
Click for the latest NOTAMs
NOTAMs are issued by the DoD/FAA and will open in a separate window not controlled by AirNav.

 

 
 

Would you like to see your business listed on this page?

 If your business provides an interesting product or service to pilots, flight crews, aircraft, or users of the Two Hearted Airstrip, you should consider listing it here.  To start the listing process, click on the button below
 
Add a business
 

Other Pages about Two Hearted Airstrip

Page from the Michigan Airport Directory (PDF)
 
Update a link
 
Copyright © AirNav, LLC. All rights reserved. Privacy Policy  Contact